KEND/END METAR and TAF weather

Enter ICAO airport designator
Station Type Date Time Source
KEND METAR 2019/08/22 03:56 UTC NOAA

KEND 220356Z AUTO 09008KT 10SM BKN095 BKN130 29/22 A2993 RMK AO2 SLP119 T02900222 $


Station Type Date Time Source
KEND Decoded METAR 2019/08/22 03:56 UTC NOAA

Station name not available
Aug 21, 2019 - 11:56 PM EDT / 2019.08.22 0356 UTC
Wind: from the E (090 degrees) at 9 MPH (8 KT):0
Visibility: 10 mile(s):0
Sky conditions: mostly cloudy
Temperature: 84.2 F (29.0 C)
Dew Point: 72.0 F (22.2 C)
Relative Humidity: 66%
Pressure (altimeter): 29.93 in. Hg (1013 hPa)
ob: KEND 220356Z AUTO 09008KT 10SM BKN095 BKN130 29/22 A2993 RMK AO2 SLP119 T02900222
cycle: 4

Station Type Date Time Source
KEND TAF 2019/08/22 02:06 UTC NOAA

TAF TAF KEND 220200Z 2202/2308 18012KT 9999 FEW100 QNH2984INS
BECMG 2210/2211 20012KT 9000 -SHRA BKN050 QNH2990INS
BECMG 2216/2217 17009KT 9999 NSW SCT080 SCT250 QNH2990INS
BECMG 2220/2221 19012KT 8000 -SHRA VCTS BKN050CB QNH2985INS
BECMG 2302/2303 17009KT 9999 NSW SCT070 QNH2989INS TX37/2221Z TN25/2212Z

Example: see airport list